This is the latest recevied weather packets stored in our database for station/object N5GMJ. If no packets are shown the sender has not sent any weather packets the latest 1 day(s).
| Time | Temp. | Humidity | Pressure | Rain* | Wind** | Luminosity | Snow |
|---|---|---|---|---|---|---|---|
| 1778098496 | 18.33° C | 64% | 1015.8 hPa | 0 mm | - | - | - |
| 1778097889 | 17.78° C | 70% | 1015.6 hPa | 0 mm | - | - | - |
| 1778096979 | 17.78° C | 68% | 1016 hPa | 0 mm | - | - | - |
| 1778094857 | 16.67° C | 69% | 1016.4 hPa | 0 mm | - | - | - |
| 1778094554 | 16.67° C | 69% | 1016.5 hPa | 0 mm | - | - | - |
| 1778094250 | 16.11° C | 70% | 1016.3 hPa | 0 mm | - | - | - |
| 1778091221 | 15° C | 73% | 1016.1 hPa | 0 mm | - | - | - |
| 1778090613 | 14.44° C | 76% | 1016.1 hPa | 0 mm | - | - | - |
| 1778089704 | 15° C | 76% | 1016.4 hPa | 0 mm | - | - | - |
| 1778089099 | 13.33° C | 80% | 1016.7 hPa | 0 mm | - | - | - |
| 1778087583 | 12.22° C | 84% | 1016.3 hPa | 0 mm | - | - | - |
| 1778087281 | 12.22° C | 85% | 1016.5 hPa | 0 mm | - | - | - |
| 1778086676 | 11.67° C | 86% | 1016.6 hPa | 0 mm | - | - | - |
| 1778086373 | 11.67° C | 86% | 1016.5 hPa | 0 mm | - | - | - |
| 1778086070 | 11.67° C | 87% | 1016.7 hPa | 0 mm | - | - | - |
| 1778083340 | 11.11° C | 91% | 1016 hPa | 0 mm | - | - | - |
| 1778082736 | 11.11° C | 91% | 1016 hPa | 0 mm | - | - | - |
| 1778080992 | 10.56° C | 93% | 1016.3 hPa | 1.27 mm | - | - | - |
| 1778079781 | 10.56° C | 92% | 1017.6 hPa | 1.78 mm | - | - | - |
| 1778079174 | 10.56° C | 90% | 1018.3 hPa | 1.27 mm | - | - | - |
| 1778078266 | 10° C | 91% | 1017.1 hPa | 0 mm | - | - | - |
| 1778077963 | 10° C | 91% | 1017.1 hPa | 0 mm | - | - | - |
| 1778074633 | 10.56° C | 88% | 1017.2 hPa | 0 mm | - | - | - |
| 1778071907 | 10.56° C | 89% | 1015.2 hPa | 0 mm | - | - | - |
| 1778071302 | 10.56° C | 88% | 1015 hPa | 0 mm | - | - | - |
* Rain latest hour (hover to see other rain measurements)
** Current wind speed in m/s (hover to see current wind gust speed)